sensor_id;sensor_type;location;lat;lon;timestamp;pressure;altitude;pressure_sealevel;temperature;humidity
71109;BME280;59614;51.012;-1.648;2023-04-01T00:01:18;99139.59;;;10.22;100.00
71109;BME280;59614;51.012;-1.648;2023-04-01T00:03:44;99142.16;;;10.49;100.00
71109;BME280;59614;51.012;-1.648;2023-04-01T00:06:13;99143.50;;;10.35;100.00
71109;BME280;59614;51.012;-1.648;2023-04-01T00:08:39;99145.72;;;10.23;100.00
71109;BME280;59614;51.012;-1.648;2023-04-01T00:11:04;99144.63;;;10.54;100.00
71109;BME280;59614;51.012;-1.648;2023-04-01T00:13:30;99145.78;;;10.46;100.00
71109;BME280;59614;51.012;-1.648;2023-04-01T00:15:55;99145.56;;;10.53;100.00
71109;BME280;59614;51.012;-1.648;2023-04-01T00:18:21;99141.03;;;10.56;100.00
71109;BME280;59614;51.012;-1.648;2023-04-01T00:20:49;99154.31;;;10.53;100.00
71109;BME280;59614;51.012;-1.648;2023-04-01T00:23:16;99155.69;;;10.40;100.00
71109;BME280;59614;51.012;-1.648;2023-04-01T00:25:43;99162.78;;;10.63;100.00
71109;BME280;59614;51.012;-1.648;2023-04-01T00:28:09;99164.16;;;10.48;100.00
71109;BME280;59614;51.012;-1.648;2023-04-01T00:30:35;99160.41;;;10.55;100.00
71109;BME280;59614;51.012;-1.648;2023-04-01T00:33:02;99174.09;;;10.41;100.00
71109;BME280;59614;51.012;-1.648;2023-04-01T00:35:27;99163.25;;;10.49;100.00
71109;BME280;59614;51.012;-1.648;2023-04-01T00:37:53;99175.88;;;10.41;100.00
71109;BME280;59614;51.012;-1.648;2023-04-01T00:40:33;99182.03;;;10.41;100.00
71109;BME280;59614;51.012;-1.648;2023-04-01T00:42:59;99173.22;;;10.41;100.00
71109;BME280;59614;51.012;-1.648;2023-04-01T00:45:46;99181.25;;;10.63;100.00
71109;BME280;59614;51.012;-1.648;2023-04-01T00:48:16;99174.50;;;10.29;100.00
71109;BME280;59614;51.012;-1.648;2023-04-01T00:50:46;99188.22;;;10.40;100.00
71109;BME280;59614;51.012;-1.648;2023-04-01T00:53:14;99179.97;;;10.49;100.00
71109;BME280;59614;51.012;-1.648;2023-04-01T00:55:45;99183.97;;;10.34;100.00
71109;BME280;59614;51.012;-1.648;2023-04-01T00:58:17;99180.22;;;10.42;100.00
71109;BME280;59614;51.012;-1.648;2023-04-01T01:00:46;99193.56;;;10.62;100.00
71109;BME280;59614;51.012;-1.648;2023-04-01T01:03:12;99184.50;;;10.19;100.00
71109;BME280;59614;51.012;-1.648;2023-04-01T01:05:58;99191.59;;;10.17;100.00
71109;BME280;59614;51.012;-1.648;2023-04-01T01:25:52;99205.09;;;10.34;100.00
71109;BME280;59614;51.012;-1.648;2023-04-01T01:28:47;99207.22;;;10.23;100.00
71109;BME280;59614;51.012;-1.648;2023-04-01T01:31:25;99208.41;;;10.14;100.00
71109;BME280;59614;51.012;-1.648;2023-04-01T01:34:09;99211.38;;;10.03;100.00
71109;BME280;59614;51.012;-1.648;2023-04-01T01:36:38;99215.13;;;10.23;100.00
71109;BME280;59614;51.012;-1.648;2023-04-01T01:39:06;99214.31;;;10.21;100.00
71109;BME280;59614;51.012;-1.648;2023-04-01T01:41:34;99216.47;;;10.10;100.00
71109;BME280;59614;51.012;-1.648;2023-04-01T01:44:03;99228.63;;;10.14;100.00
71109;BME280;59614;51.012;-1.648;2023-04-01T01:46:32;99222.09;;;9.99;100.00
71109;BME280;59614;51.012;-1.648;2023-04-01T01:49:00;99227.13;;;10.07;100.00
71109;BME280;59614;51.012;-1.648;2023-04-01T01:51:27;99223.16;;;9.93;100.00
71109;BME280;59614;51.012;-1.648;2023-04-01T01:53:53;99220.88;;;10.09;100.00
71109;BME280;59614;51.012;-1.648;2023-04-01T01:56:21;99222.25;;;9.94;100.00
71109;BME280;59614;51.012;-1.648;2023-04-01T01:58:50;99236.19;;;9.98;100.00
71109;BME280;59614;51.012;-1.648;2023-04-01T02:01:21;99238.72;;;10.01;100.00
71109;BME280;59614;51.012;-1.648;2023-04-01T02:03:49;99234.41;;;9.71;100.00
71109;BME280;59614;51.012;-1.648;2023-04-01T02:06:18;99233.94;;;9.85;100.00
71109;BME280;59614;51.012;-1.648;2023-04-01T02:11:16;99250.25;;;9.98;100.00
71109;BME280;59614;51.012;-1.648;2023-04-01T02:13:57;99243.34;;;9.94;100.00
71109;BME280;59614;51.012;-1.648;2023-04-01T02:16:28;99247.78;;;9.92;100.00
71109;BME280;59614;51.012;-1.648;2023-04-01T02:18:57;99244.16;;;9.96;100.00
71109;BME280;59614;51.012;-1.648;2023-04-01T02:21:27;99241.59;;;9.93;100.00
71109;BME280;59614;51.012;-1.648;2023-04-01T02:23:56;99244.16;;;9.96;100.00
71109;BME280;59614;51.012;-1.648;2023-04-01T02:26:24;99246.13;;;9.61;100.00
71109;BME280;59614;51.012;-1.648;2023-04-01T02:28:52;99247.09;;;9.58;100.00
71109;BME280;59614;51.012;-1.648;2023-04-01T02:31:18;99250.53;;;9.89;100.00
71109;BME280;59614;51.012;-1.648;2023-04-01T02:33:44;99240.53;;;9.99;100.00
71109;BME280;59614;51.012;-1.648;2023-04-01T02:36:13;99248.00;;;9.86;100.00
71109;BME280;59614;51.012;-1.648;2023-04-01T02:38:40;99246.88;;;9.93;100.00
71109;BME280;59614;51.012;-1.648;2023-04-01T02:41:06;99245.75;;;9.73;100.00
71109;BME280;59614;51.012;-1.648;2023-04-01T02:43:32;99241.91;;;9.84;100.00
71109;BME280;59614;51.012;-1.648;2023-04-01T02:45:57;99256.50;;;9.67;100.00
71109;BME280;59614;51.012;-1.648;2023-04-01T02:48:23;99251.75;;;9.79;100.00
71109;BME280;59614;51.012;-1.648;2023-04-01T02:50:49;99256.59;;;9.64;100.00
71109;BME280;59614;51.012;-1.648;2023-04-01T02:53:15;99257.94;;;9.78;100.00
71109;BME280;59614;51.012;-1.648;2023-04-01T02:55:41;99259.53;;;9.55;100.00
71109;BME280;59614;51.012;-1.648;2023-04-01T02:58:07;99251.50;;;9.58;100.00
71109;BME280;59614;51.012;-1.648;2023-04-01T03:00:32;99255.91;;;9.86;100.00
71109;BME280;59614;51.012;-1.648;2023-04-01T03:02:58;99254.50;;;9.74;100.00
71109;BME280;59614;51.012;-1.648;2023-04-01T03:05:23;99269.47;;;9.73;100.00
71109;BME280;59614;51.012;-1.648;2023-04-01T03:07:49;99260.75;;;9.71;100.00
71109;BME280;59614;51.012;-1.648;2023-04-01T03:10:15;99251.25;;;9.66;100.00
71109;BME280;59614;51.012;-1.648;2023-04-01T03:12:40;99268.75;;;9.68;100.00
71109;BME280;59614;51.012;-1.648;2023-04-01T03:15:06;99270.09;;;9.82;100.00
71109;BME280;59614;51.012;-1.648;2023-04-01T03:17:32;99272.88;;;9.77;100.00
71109;BME280;59614;51.012;-1.648;2023-04-01T03:19:57;99273.25;;;9.65;100.00
71109;BME280;59614;51.012;-1.648;2023-04-01T03:22:23;99273.00;;;9.72;100.00
71109;BME280;59614;51.012;-1.648;2023-04-01T03:24:48;99280.31;;;9.63;100.00
71109;BME280;59614;51.012;-1.648;2023-04-01T03:27:14;99280.09;;;9.70;100.00
71109;BME280;59614;51.012;-1.648;2023-04-01T03:29:40;99284.38;;;9.74;100.00
71109;BME280;59614;51.012;-1.648;2023-04-01T03:32:06;99282.72;;;9.70;100.00
71109;BME280;59614;51.012;-1.648;2023-04-01T03:34:31;99284.69;;;9.64;100.00
71109;BME280;59614;51.012;-1.648;2023-04-01T03:36:57;99286.56;;;9.60;100.00
71109;BME280;59614;51.012;-1.648;2023-04-01T03:39:22;99287.59;;;9.56;100.00
71109;BME280;59614;51.012;-1.648;2023-04-01T03:41:48;99291.13;;;9.83;100.00
71109;BME280;59614;51.012;-1.648;2023-04-01T03:44:14;99283.94;;;9.88;100.00
71109;BME280;59614;51.012;-1.648;2023-04-01T03:46:40;99289.63;;;9.74;100.00
71109;BME280;59614;51.012;-1.648;2023-04-01T03:49:09;99292.28;;;9.74;100.00
71109;BME280;59614;51.012;-1.648;2023-04-01T03:51:38;99289.56;;;9.48;100.00
71109;BME280;59614;51.012;-1.648;2023-04-01T03:54:04;99295.09;;;9.68;100.00
71109;BME280;59614;51.012;-1.648;2023-04-01T03:56:31;99290.31;;;9.53;100.00
71109;BME280;59614;51.012;-1.648;2023-04-01T03:58:57;99293.03;;;9.78;100.00
71109;BME280;59614;51.012;-1.648;2023-04-01T04:01:22;99295.50;;;9.84;100.00
71109;BME280;59614;51.012;-1.648;2023-04-01T04:03:49;99299.75;;;9.60;100.00
71109;BME280;59614;51.012;-1.648;2023-04-01T04:06:16;99298.16;;;9.54;100.00
71109;BME280;59614;51.012;-1.648;2023-04-01T04:08:42;99300.09;;;9.78;100.00
71109;BME280;59614;51.012;-1.648;2023-04-01T04:11:07;99304.19;;;9.58;100.00
71109;BME280;59614;51.012;-1.648;2023-04-01T04:13:33;99310.09;;;9.36;100.00
71109;BME280;59614;51.012;-1.648;2023-04-01T04:15:59;99313.13;;;9.52;100.00
71109;BME280;59614;51.012;-1.648;2023-04-01T04:18:24;99306.78;;;9.60;100.00
71109;BME280;59614;51.012;-1.648;2023-04-01T04:20:50;99306.78;;;9.60;100.00
71109;BME280;59614;51.012;-1.648;2023-04-01T04:23:17;99315.63;;;9.57;100.00
71109;BME280;59614;51.012;-1.648;2023-04-01T04:25:57;99314.84;;;9.53;100.00
71109;BME280;59614;51.012;-1.648;2023-04-01T04:28:23;99316.41;;;9.61;100.00
71109;BME280;59614;51.012;-1.648;2023-04-01T04:30:48;99322.41;;;9.36;100.00
71109;BME280;59614;51.012;-1.648;2023-04-01T04:33:14;99323.19;;;9.39;100.00
71109;BME280;59614;51.012;-1.648;2023-04-01T04:35:39;99317.22;;;9.63;100.00
71109;BME280;59614;51.012;-1.648;2023-04-01T04:38:04;99317.75;;;9.74;100.00
71109;BME280;59614;51.012;-1.648;2023-04-01T04:40:30;99327.63;;;9.67;100.00
71109;BME280;59614;51.012;-1.648;2023-04-01T04:42:55;99322.25;;;9.70;100.00
71109;BME280;59614;51.012;-1.648;2023-04-01T04:45:21;99321.09;;;9.51;100.00
71109;BME280;59614;51.012;-1.648;2023-04-01T04:47:46;99328.16;;;9.49;100.00
71109;BME280;59614;51.012;-1.648;2023-04-01T04:50:12;99324.72;;;9.77;100.00
71109;BME280;59614;51.012;-1.648;2023-04-01T04:52:38;99327.88;;;9.58;100.00
71109;BME280;59614;51.012;-1.648;2023-04-01T04:55:03;99335.75;;;9.30;100.00
71109;BME280;59614;51.012;-1.648;2023-04-01T04:57:29;99342.03;;;9.55;100.00
71109;BME280;59614;51.012;-1.648;2023-04-01T04:59:55;99330.19;;;9.40;100.00
71109;BME280;59614;51.012;-1.648;2023-04-01T05:02:20;99335.78;;;9.58;100.00
71109;BME280;59614;51.012;-1.648;2023-04-01T05:04:46;99337.44;;;9.62;100.00
71109;BME280;59614;51.012;-1.648;2023-04-01T05:07:11;99342.91;;;9.56;100.00
71109;BME280;59614;51.012;-1.648;2023-04-01T05:09:37;99347.00;;;9.65;100.00
71109;BME280;59614;51.012;-1.648;2023-04-01T05:12:02;99349.56;;;9.38;100.00
71109;BME280;59614;51.012;-1.648;2023-04-01T05:14:28;99363.19;;;9.52;100.00
71109;BME280;59614;51.012;-1.648;2023-04-01T05:16:53;99367.59;;;9.52;100.00
71109;BME280;59614;51.012;-1.648;2023-04-01T05:19:20;99355.06;;;9.60;100.00
71109;BME280;59614;51.012;-1.648;2023-04-01T05:21:45;99360.94;;;9.40;100.00
71109;BME280;59614;51.012;-1.648;2023-04-01T05:24:11;99365.69;;;9.57;100.00
71109;BME280;59614;51.012;-1.648;2023-04-01T05:26:36;99366.63;;;9.56;100.00
71109;BME280;59614;51.012;-1.648;2023-04-01T05:29:03;99366.47;;;9.61;100.00
71109;BME280;59614;51.012;-1.648;2023-04-01T05:31:29;99374.75;;;9.47;100.00
71109;BME280;59614;51.012;-1.648;2023-04-01T05:33:55;99381.31;;;9.33;100.00
71109;BME280;59614;51.012;-1.648;2023-04-01T05:36:21;99380.44;;;9.63;100.00
71109;BME280;59614;51.012;-1.648;2023-04-01T05:38:46;99381.63;;;9.52;100.00
71109;BME280;59614;51.012;-1.648;2023-04-01T05:41:13;99381.75;;;9.48;100.00
71109;BME280;59614;51.012;-1.648;2023-04-01T05:43:40;99396.31;;;9.61;100.00
71109;BME280;59614;51.012;-1.648;2023-04-01T05:46:06;99386.59;;;9.63;100.00
71109;BME280;59614;51.012;-1.648;2023-04-01T05:48:32;99402.41;;;9.63;100.00
71109;BME280;59614;51.012;-1.648;2023-04-01T05:51:00;99399.13;;;9.55;100.00
71109;BME280;59614;51.012;-1.648;2023-04-01T05:53:25;99396.94;;;9.69;100.00
71109;BME280;59614;51.012;-1.648;2023-04-01T05:55:51;99397.41;;;9.54;100.00
71109;BME280;59614;51.012;-1.648;2023-04-01T05:58:16;99403.53;;;9.23;100.00
71109;BME280;59614;51.012;-1.648;2023-04-01T06:00:41;99401.09;;;9.47;100.00
71109;BME280;59614;51.012;-1.648;2023-04-01T06:03:07;99407.94;;;9.54;100.00
71109;BME280;59614;51.012;-1.648;2023-04-01T06:05:41;99401.09;;;9.47;100.00
71109;BME280;59614;51.012;-1.648;2023-04-01T06:13:34;99406.00;;;9.59;100.00
71109;BME280;59614;51.012;-1.648;2023-04-01T06:21:41;99416.41;;;9.65;100.00
71109;BME280;59614;51.012;-1.648;2023-04-01T06:38:24;99427.56;;;9.73;100.00
71109;BME280;59614;51.012;-1.648;2023-04-01T06:46:59;99444.13;;;9.79;100.00
71109;BME280;59614;51.012;-1.648;2023-04-01T06:58:22;99467.09;;;9.73;100.00
71109;BME280;59614;51.012;-1.648;2023-04-01T07:00:56;99459.81;;;9.82;100.00
71109;BME280;59614;51.012;-1.648;2023-04-01T07:09:43;99471.97;;;10.17;100.00
71109;BME280;59614;51.012;-1.648;2023-04-01T07:12:40;99475.38;;;10.21;100.00
71109;BME280;59614;51.012;-1.648;2023-04-01T07:15:21;99466.97;;;10.36;100.00
71109;BME280;59614;51.012;-1.648;2023-04-01T07:17:55;99479.38;;;10.04;100.00
71109;BME280;59614;51.012;-1.648;2023-04-01T07:20:35;99486.41;;;10.34;100.00
71109;BME280;59614;51.012;-1.648;2023-04-01T07:23:10;99486.31;;;10.39;100.00
71109;BME280;59614;51.012;-1.648;2023-04-01T07:25:40;99480.22;;;10.35;100.00
71109;BME280;59614;51.012;-1.648;2023-04-01T07:28:13;99488.38;;;10.27;100.00
71109;BME280;59614;51.012;-1.648;2023-04-01T07:36:42;99492.06;;;10.52;100.00
71109;BME280;59614;51.012;-1.648;2023-04-01T07:42:13;99497.16;;;10.58;100.00
71109;BME280;59614;51.012;-1.648;2023-04-01T07:45:05;99508.09;;;10.74;100.00
71109;BME280;59614;51.012;-1.648;2023-04-01T07:50:34;99515.44;;;10.34;100.00
71109;BME280;59614;51.012;-1.648;2023-04-01T07:58:50;99513.34;;;10.45;100.00
71109;BME280;59614;51.012;-1.648;2023-04-01T08:01:23;99518.19;;;10.59;100.00
71109;BME280;59614;51.012;-1.648;2023-04-01T08:04:44;99526.03;;;10.62;100.00
71109;BME280;59614;51.012;-1.648;2023-04-01T08:07:13;99525.44;;;10.81;100.00
71109;BME280;59614;51.012;-1.648;2023-04-01T08:12:59;99536.13;;;10.48;100.00
71109;BME280;59614;51.012;-1.648;2023-04-01T08:15:27;99534.53;;;10.44;100.00
71109;BME280;59614;51.012;-1.648;2023-04-01T08:18:03;99535.38;;;10.44;100.00
71109;BME280;59614;51.012;-1.648;2023-04-01T08:20:48;99546.84;;;10.72;100.00
71109;BME280;59614;51.012;-1.648;2023-04-01T08:23:31;99545.69;;;10.52;100.00
71109;BME280;59614;51.012;-1.648;2023-04-01T08:26:41;99546.84;;;10.72;100.00
71109;BME280;59614;51.012;-1.648;2023-04-01T08:29:16;99547.06;;;10.92;100.00
71109;BME280;59614;51.012;-1.648;2023-04-01T08:34:18;99550.47;;;10.69;100.00
71109;BME280;59614;51.012;-1.648;2023-04-01T08:36:52;99556.16;;;10.55;100.00
71109;BME280;59614;51.012;-1.648;2023-04-01T08:39:48;99555.63;;;10.44;100.00
71109;BME280;59614;51.012;-1.648;2023-04-01T08:44:56;99562.81;;;10.67;100.00
71109;BME280;59614;51.012;-1.648;2023-04-01T08:47:50;99566.16;;;10.74;100.00
71109;BME280;59614;51.012;-1.648;2023-04-01T09:01:56;99582.19;;;10.68;100.00
71109;BME280;59614;51.012;-1.648;2023-04-01T09:05:16;99587.53;;;10.64;100.00
71109;BME280;59614;51.012;-1.648;2023-04-01T09:21:20;99598.66;;;10.46;100.00
71109;BME280;59614;51.012;-1.648;2023-04-01T09:27:02;99602.41;;;10.67;100.00
71109;BME280;59614;51.012;-1.648;2023-04-01T09:30:04;99599.22;;;10.57;100.00
71109;BME280;59614;51.012;-1.648;2023-04-01T09:35:24;99601.44;;;10.41;100.00
71109;BME280;59614;51.012;-1.648;2023-04-01T09:43:27;99606.78;;;10.38;100.00
71109;BME280;59614;51.012;-1.648;2023-04-01T09:51:05;99615.66;;;10.34;100.00
71109;BME280;59614;51.012;-1.648;2023-04-01T10:02:04;99627.38;;;11.42;100.00
71109;BME280;59614;51.012;-1.648;2023-04-01T10:05:49;99628.16;;;11.71;100.00
71109;BME280;59614;51.012;-1.648;2023-04-01T10:10:27;99633.09;;;12.09;100.00
71109;BME280;59614;51.012;-1.648;2023-04-01T10:13:27;99635.84;;;12.55;100.00
71109;BME280;59614;51.012;-1.648;2023-04-01T10:16:20;99644.94;;;12.71;100.00
71109;BME280;59614;51.012;-1.648;2023-04-01T10:24:47;99657.38;;;12.45;100.00
71109;BME280;59614;51.012;-1.648;2023-04-01T10:52:24;99700.69;;;11.35;100.00
71109;BME280;59614;51.012;-1.648;2023-04-01T11:12:06;99728.16;;;11.30;100.00
71109;BME280;59614;51.012;-1.648;2023-04-01T11:17:50;99731.31;;;11.42;100.00
71109;BME280;59614;51.012;-1.648;2023-04-01T11:26:09;99725.84;;;12.55;100.00
71109;BME280;59614;51.012;-1.648;2023-04-01T11:39:44;99756.00;;;11.97;100.00
71109;BME280;59614;51.012;-1.648;2023-04-01T11:42:29;99757.69;;;12.26;100.00
71109;BME280;59614;51.012;-1.648;2023-04-01T12:07:27;99800.88;;;12.79;95.20
71109;BME280;59614;51.012;-1.648;2023-04-01T12:20:50;99810.22;;;13.62;92.85
71109;BME280;59614;51.012;-1.648;2023-04-01T12:26:30;99822.13;;;13.96;89.23
71109;BME280;59614;51.012;-1.648;2023-04-01T12:31:42;99818.19;;;13.62;90.07
71109;BME280;59614;51.012;-1.648;2023-04-01T12:42:35;99838.16;;;14.38;86.41
71109;BME280;59614;51.012;-1.648;2023-04-01T12:56:14;99844.53;;;14.54;84.49
71109;BME280;59614;51.012;-1.648;2023-04-01T13:10:31;99863.47;;;14.02;84.68
71109;BME280;59614;51.012;-1.648;2023-04-01T13:16:18;99874.84;;;12.83;87.38
71109;BME280;59614;51.012;-1.648;2023-04-01T13:19:01;99886.41;;;12.56;89.26
71109;BME280;59614;51.012;-1.648;2023-04-01T13:21:54;99893.53;;;12.80;90.55
71109;BME280;59614;51.012;-1.648;2023-04-01T13:24:43;99891.41;;;12.90;89.57
71109;BME280;59614;51.012;-1.648;2023-04-01T13:27:27;99902.06;;;12.62;89.57
71109;BME280;59614;51.012;-1.648;2023-04-01T13:38:45;99918.41;;;13.27;85.44
71109;BME280;59614;51.012;-1.648;2023-04-01T13:43:37;99922.88;;;13.25;83.69
71109;BME280;59614;51.012;-1.648;2023-04-01T14:21:13;99997.00;;;11.84;89.72
71109;BME280;59614;51.012;-1.648;2023-04-01T14:34:19;100016.94;;;11.98;88.44
71109;BME280;59614;51.012;-1.648;2023-04-01T14:47:44;100039.44;;;11.80;85.33
71109;BME280;59614;51.012;-1.648;2023-04-01T14:50:18;100039.44;;;11.81;84.45
71109;BME280;59614;51.012;-1.648;2023-04-01T14:53:12;100053.78;;;11.71;84.75
71109;BME280;59614;51.012;-1.648;2023-04-01T14:58:16;100054.66;;;12.04;84.84
71109;BME280;59614;51.012;-1.648;2023-04-01T15:00:48;100056.00;;;11.86;82.27
71109;BME280;59614;51.012;-1.648;2023-04-01T15:11:48;100084.66;;;11.36;83.93
71109;BME280;59614;51.012;-1.648;2023-04-01T15:22:59;100104.25;;;11.62;81.18
71109;BME280;59614;51.012;-1.648;2023-04-01T15:28:09;100106.66;;;11.71;79.63
71109;BME280;59614;51.012;-1.648;2023-04-01T15:30:59;100111.88;;;11.74;81.29
71109;BME280;59614;51.012;-1.648;2023-04-01T15:33:39;100125.00;;;11.77;81.66
71109;BME280;59614;51.012;-1.648;2023-04-01T15:39:21;100126.66;;;11.48;81.19
71109;BME280;59614;51.012;-1.648;2023-04-01T15:47:32;100140.72;;;12.16;80.00
71109;BME280;59614;51.012;-1.648;2023-04-01T16:04:23;100166.41;;;11.78;80.31
71109;BME280;59614;51.012;-1.648;2023-04-01T16:12:17;100185.59;;;11.86;84.71
71109;BME280;59614;51.012;-1.648;2023-04-01T16:15:08;100185.47;;;11.91;81.09
71109;BME280;59614;51.012;-1.648;2023-04-01T16:20:51;100196.34;;;11.80;81.24
71109;BME280;59614;51.012;-1.648;2023-04-01T16:28:52;100193.16;;;12.02;82.74
71109;BME280;59614;51.012;-1.648;2023-04-01T16:31:43;100201.72;;;12.12;79.39
71109;BME280;59614;51.012;-1.648;2023-04-01T16:34:16;100203.44;;;12.14;73.59
71109;BME280;59614;51.012;-1.648;2023-04-01T16:50:30;100223.88;;;12.41;75.88
71109;BME280;59614;51.012;-1.648;2023-04-01T16:55:54;100222.56;;;12.24;75.25
71109;BME280;59614;51.012;-1.648;2023-04-01T17:01:27;100234.94;;;12.22;73.98
71109;BME280;59614;51.012;-1.648;2023-04-01T17:04:07;100240.22;;;12.24;74.35
71109;BME280;59614;51.012;-1.648;2023-04-01T17:06:55;100238.22;;;12.32;75.62
71109;BME280;59614;51.012;-1.648;2023-04-01T17:09:57;100241.19;;;12.52;81.07
71109;BME280;59614;51.012;-1.648;2023-04-01T17:20:19;100264.56;;;12.38;76.72
71109;BME280;59614;51.012;-1.648;2023-04-01T17:38:50;100298.44;;;11.86;73.45
71109;BME280;59614;51.012;-1.648;2023-04-01T17:49:49;100324.91;;;11.45;72.92
71109;BME280;59614;51.012;-1.648;2023-04-01T17:57:42;100336.97;;;11.58;72.70
71109;BME280;59614;51.012;-1.648;2023-04-01T18:14:22;100378.81;;;11.36;74.70
71109;BME280;59614;51.012;-1.648;2023-04-01T18:22:34;100399.91;;;11.38;75.35
71109;BME280;59614;51.012;-1.648;2023-04-01T18:30:36;100415.75;;;11.39;76.77
71109;BME280;59614;51.012;-1.648;2023-04-01T18:35:50;100427.31;;;11.34;76.62
71109;BME280;59614;51.012;-1.648;2023-04-01T18:38:33;100432.38;;;10.97;77.40
71109;BME280;59614;51.012;-1.648;2023-04-01T18:41:13;100439.16;;;11.12;78.33
71109;BME280;59614;51.012;-1.648;2023-04-01T18:52:17;100473.84;;;10.94;75.58
71109;BME280;59614;51.012;-1.648;2023-04-01T19:00:34;100498.09;;;10.63;74.48
71109;BME280;59614;51.012;-1.648;2023-04-01T19:03:16;100508.66;;;10.63;73.99
71109;BME280;59614;51.012;-1.648;2023-04-01T19:05:47;100514.09;;;10.52;72.93
71109;BME280;59614;51.012;-1.648;2023-04-01T19:08:30;100520.28;;;10.48;73.19
71109;BME280;59614;51.012;-1.648;2023-04-01T19:11:33;100515.75;;;10.58;73.88
71109;BME280;59614;51.012;-1.648;2023-04-01T19:22:26;100537.91;;;10.47;74.33
71109;BME280;59614;51.012;-1.648;2023-04-01T19:28:01;100551.91;;;10.51;73.77
71109;BME280;59614;51.012;-1.648;2023-04-01T19:36:06;100566.16;;;10.39;74.96
71109;BME280;59614;51.012;-1.648;2023-04-01T19:43:58;100586.34;;;10.42;74.90
71109;BME280;59614;51.012;-1.648;2023-04-01T19:46:36;100592.53;;;10.41;75.38
71109;BME280;59614;51.012;-1.648;2023-04-01T19:49:10;100590.59;;;10.55;75.42
71109;BME280;59614;51.012;-1.648;2023-04-01T19:51:51;100597.78;;;10.44;75.94
71109;BME280;59614;51.012;-1.648;2023-04-01T20:03:00;100609.28;;;10.35;75.07
71109;BME280;59614;51.012;-1.648;2023-04-01T20:11:50;100623.69;;;10.06;75.88
71109;BME280;59614;51.012;-1.648;2023-04-01T20:14:34;100626.25;;;10.12;75.66
71109;BME280;59614;51.012;-1.648;2023-04-01T20:17:11;100631.66;;;10.01;76.18
71109;BME280;59614;51.012;-1.648;2023-04-01T20:19:43;100634.13;;;10.15;76.06
71109;BME280;59614;51.012;-1.648;2023-04-01T20:22:38;100633.88;;;10.39;75.56
71109;BME280;59614;51.012;-1.648;2023-04-01T20:25:17;100644.88;;;9.98;75.34
71109;BME280;59614;51.012;-1.648;2023-04-01T20:27:50;100638.69;;;9.98;74.56
71109;BME280;59614;51.012;-1.648;2023-04-01T20:30:46;100646.56;;;10.02;74.14
71109;BME280;59614;51.012;-1.648;2023-04-01T20:43:57;100686.22;;;9.93;72.86
71109;BME280;59614;51.012;-1.648;2023-04-01T20:49:38;100696.63;;;10.09;72.99
71109;BME280;59614;51.012;-1.648;2023-04-01T21:02:47;100707.47;;;9.78;73.14
71109;BME280;59614;51.012;-1.648;2023-04-01T21:05:48;100718.09;;;9.65;73.42
71109;BME280;59614;51.012;-1.648;2023-04-01T21:08:53;100713.59;;;9.78;73.38
71109;BME280;59614;51.012;-1.648;2023-04-01T21:25:37;100751.50;;;9.60;74.23
71109;BME280;59614;51.012;-1.648;2023-04-01T21:28:19;100748.94;;;9.54;74.30
71109;BME280;59614;51.012;-1.648;2023-04-01T21:37:01;100751.56;;;9.54;75.67
71109;BME280;59614;51.012;-1.648;2023-04-01T22:07:19;100789.38;;;9.42;77.39
71109;BME280;59614;51.012;-1.648;2023-04-01T22:10:09;100796.50;;;9.27;77.24
71109;BME280;59614;51.012;-1.648;2023-04-01T22:13:06;100793.81;;;9.40;78.40
71109;BME280;59614;51.012;-1.648;2023-04-01T22:18:34;100813.97;;;9.46;77.30
71109;BME280;59614;51.012;-1.648;2023-04-01T22:23:47;100820.00;;;9.63;76.84
71109;BME280;59614;51.012;-1.648;2023-04-01T22:26:21;100825.22;;;9.69;76.61
71109;BME280;59614;51.012;-1.648;2023-04-01T22:29:24;100828.88;;;9.50;77.99
71109;BME280;59614;51.012;-1.648;2023-04-01T22:32:04;100833.28;;;9.49;78.00
71109;BME280;59614;51.012;-1.648;2023-04-01T22:34:57;100844.63;;;9.62;76.64
71109;BME280;59614;51.012;-1.648;2023-04-01T22:48:43;100860.47;;;9.56;77.36
71109;BME280;59614;51.012;-1.648;2023-04-01T22:56:28;100867.63;;;9.26;77.50
71109;BME280;59614;51.012;-1.648;2023-04-01T22:59:02;100878.09;;;9.35;79.00
71109;BME280;59614;51.012;-1.648;2023-04-01T23:01:33;100880.81;;;9.24;78.63
71109;BME280;59614;51.012;-1.648;2023-04-01T23:04:03;100887.75;;;9.41;78.60
71109;BME280;59614;51.012;-1.648;2023-04-01T23:06:32;100895.56;;;9.64;79.74
71109;BME280;59614;51.012;-1.648;2023-04-01T23:09:08;100896.38;;;9.72;78.04
71109;BME280;59614;51.012;-1.648;2023-04-01T23:11:55;100902.56;;;9.68;78.53
71109;BME280;59614;51.012;-1.648;2023-04-01T23:19:51;100907.03;;;9.54;78.27
71109;BME280;59614;51.012;-1.648;2023-04-01T23:33:29;100930.88;;;9.04;83.70
71109;BME280;59614;51.012;-1.648;2023-04-01T23:38:33;100938.78;;;9.01;84.18
71109;BME280;59614;51.012;-1.648;2023-04-01T23:40:59;100942.31;;;8.94;84.25
71109;BME280;59614;51.012;-1.648;2023-04-01T23:43:36;100941.41;;;9.17;84.12
71109;BME280;59614;51.012;-1.648;2023-04-01T23:46:03;100942.19;;;9.42;82.95
71109;BME280;59614;51.012;-1.648;2023-04-01T23:48:39;100943.09;;;9.32;83.75
71109;BME280;59614;51.012;-1.648;2023-04-01T23:53:43;100945.78;;;9.13;84.08
71109;BME280;59614;51.012;-1.648;2023-04-01T23:56:09;100949.28;;;9.23;85.03
71109;BME280;59614;51.012;-1.648;2023-04-01T23:58:43;100955.41;;;9.39;84.25
